Flight Track Log - Related Links

Times and Time Zones

All times are in EDT time to prevent confusion due to time zone crossing. See the N311JE flight status page for this flight to view local times or setup timezone preferences in your user account.

Time Position Orientation Groundspeed Altitude Reporting Facility
EDT Latitude Longitude Course Direction KTS MPH feet Rate Location/Type
Sat 04:53:14 PM 43.0325 -89.3231 169° South 126 145 3,300  Level Chicago Center
Sat 04:54:16 PM 42.9958 -89.3206 177° South 130 150 4,000 677 Climbing Chicago Center
Sat 04:55:18 PM 42.9550 -89.3128 172° South 129 148 4,700 439 Climbing Chicago Center
Sat 04:56:00 PM 42.8722 -89.2858 172° South  Level FlightAware Approximate
Sat 04:56:19 PM 42.9175 -89.3042 170° South 131 151 4,900  Level Chicago Center
Sat 04:57:00 PM 42.8285 -89.2779 172° South  Level FlightAware Approximate
Sat 04:57:21 PM 42.8744 -89.2953 171° South 143 165 4,900  Level Chicago Center
Sat 04:58:23 PM 42.8336 -89.2797 164° South 150 173 5,000 32 Climbing Chicago Center
Sat 05:00:27 PM 42.7494 -89.2744 177° South 159 183 5,000  Level Chicago Center
Sat 05:01:28 PM 42.6989 -89.2708 177° South 160 184 5,000  Level Chicago Center
Sat 05:02:30 PM 42.6575 -89.2456 156° South 168 193 5,000  Level Chicago Center
Sat 05:03:32 PM 42.6181 -89.2144 150° Southeast 165 190 5,000  Level Chicago Center
Sat 05:04:34 PM 42.5725 -89.2014 168° South 165 190 5,000  Level Chicago Center
Sat 05:05:35 PM 42.5292 -89.1808 161° South 166 191 5,000  Level Chicago Center
Sat 05:06:37 PM 42.4864 -89.1503 152° Southeast 170 196 5,000  Level Chicago Center
Sat 05:07:39 PM 42.4347 -89.1258 161° South 170 196 5,000  Level Chicago Center
Sat 05:08:40 PM 42.3914 -89.1025 158° South 168 193 5,000  Level Chicago Center
Sat 05:09:42 PM 42.3486 -89.0789 158° South 167 192 5,000  Level Chicago Center
Sat 05:10:44 PM 42.3053 -89.0553 158° South 167 192 5,000  Level Chicago Center
Sat 05:11:46 PM 42.2625 -89.0325 158° South 166 191 5,000  Level Chicago Center
Sat 05:12:48 PM 42.2189 -89.0086 158° South 167 192 5,000  Level Chicago Center
Sat 05:13:50 PM 42.1694 -88.9811 158° South 167 192 5,000  Level Chicago Center
Sat 05:14:51 PM 42.1278 -88.9606 160° South 162 186 5,000  Level Chicago Center
Sat 05:15:53 PM 42.0872 -88.9386 158° South 158 182 5,000  Level Chicago Center
Sat 05:16:55 PM 42.0431 -88.9142 158° South 163 188 5,000  Level Chicago Center
Sat 05:17:57 PM 42.0039 -88.8864 152° Southeast 159 183 5,000  Level Chicago Center
Sat 05:18:59 PM 41.9894 -88.8275 108° East 166 191 5,000  Level Chicago Center
Sat 05:20:01 PM 41.9589 -88.7817 132° Southeast 168 193 5,000 -48 Level Chicago Center
Sat 05:21:03 PM 41.9247 -88.7269 130° Southeast 161 185 4,900 -293 Descending Chicago Center
Sat 05:22:04 PM 41.9039 -88.6739 118° Southeast 162 186 4,400 -439 Descending Chicago Center
Sat 05:23:06 PM 41.8786 -88.6239 124° Southeast 163 188 4,000 -484 Descending Chicago Center
Sat 05:24:08 PM 41.8500 -88.5733 127° Southeast 166 191 3,400 -528 Descending Chicago Center
Sat 05:25:11 PM 41.8197 -88.5233 129° Southeast 170 196 2,900 -194 Descending Chicago Center
Sat 05:26:12 PM 41.7928 -88.4719 125° Southeast 170 196 3,000 98 Climbing Chicago Center
Sat 05:27:14 PM 41.7619 -88.4114 124° Southeast 167 192 3,100 -98 Climbing Chicago Center
Sat 05:28:15 PM 41.7456 -88.3564 112° Southeast 163 188 2,800 -341 Descending Chicago Center
Sat 05:29:17 PM 41.7450 -88.3064 91° East 148 170 2,400 -145 Descending Chicago Center
Sat 05:30:19 PM 41.7764 -88.2958 14° North 127 146 2,500 48 Climbing Chicago Center
Sat 05:31:21 PM 41.8044 -88.2817 21° North 115 132 2,500 -339 Level Chicago Center
Sat 05:32:23 PM 41.8358 -88.2742 10° North 113 130 1,800 -634 Descending Chicago Center
Sat 05:33:24 PM 41.8714 -88.2611 15° North 113 130 1,200 -590 Descending Chicago Center

Login

Don't have an account? Register now (free) for customized features, flight alerts, and more!